createdAt,value
2022-08-26T00:00:59.431Z,19.70
2022-08-26T00:05:53.262Z,18.90
2022-08-26T00:08:21.273Z,19.70
2022-08-26T00:10:48.358Z,19.90
2022-08-26T00:13:15.833Z,19.80
2022-08-26T00:15:47.051Z,18.60
2022-08-26T00:18:21.829Z,19.30
2022-08-26T00:20:49.546Z,19.70
2022-08-26T00:23:17.809Z,19.40
2022-08-26T00:38:03.980Z,18.10
2022-08-26T00:40:35.448Z,19.20
2022-08-26T00:43:07.059Z,17.90
2022-08-26T00:45:45.163Z,19.00
2022-08-26T00:48:13.438Z,17.90
2022-08-26T00:50:42.527Z,19.50
2022-08-26T00:53:23.859Z,18.90
2022-08-26T00:56:20.791Z,19.20
2022-08-26T00:58:48.143Z,18.10
2022-08-26T01:01:15.820Z,19.80
2022-08-26T01:03:43.313Z,19.40
2022-08-26T01:06:13.083Z,18.70
2022-08-26T01:08:40.227Z,19.80
2022-08-26T01:11:07.974Z,18.80
2022-08-26T01:13:36.358Z,19.60
2022-08-26T01:16:03.871Z,20.00
2022-08-26T01:18:31.569Z,18.20
2022-08-26T01:21:04.433Z,19.60
2022-08-26T01:23:33.803Z,18.10
2022-08-26T01:26:02.770Z,19.20
2022-08-26T01:28:31.461Z,18.60
2022-08-26T01:30:59.207Z,18.90
2022-08-26T01:33:32.176Z,19.30
2022-08-26T01:36:08.840Z,18.00
2022-08-26T01:38:35.545Z,18.80
2022-08-26T01:41:02.908Z,19.90
2022-08-26T01:43:44.263Z,19.50
2022-08-26T01:46:11.638Z,19.20
2022-08-26T01:48:39.001Z,20.10
2022-08-26T01:51:06.411Z,17.90
2022-08-26T01:53:33.612Z,19.50
2022-08-26T01:56:02.217Z,19.10
2022-08-26T01:58:32.732Z,18.20
2022-08-26T02:00:59.831Z,18.40
2022-08-26T04:14:05.802Z,16.40
2022-08-26T05:20:32.735Z,16.70
2022-08-26T05:23:04.951Z,17.30
2022-08-26T05:25:31.695Z,16.60
2022-08-26T05:27:58.390Z,17.70
2022-08-26T05:30:25.109Z,16.80
2022-08-26T05:35:22.914Z,16.90
2022-08-26T05:37:49.720Z,16.90
2022-08-26T05:45:23.803Z,17.50
2022-08-26T05:47:53.135Z,17.70
2022-08-26T05:50:23.197Z,17.70
2022-08-26T06:15:28.960Z,19.00
2022-08-26T06:17:55.642Z,19.10
2022-08-26T06:47:44.591Z,20.30
2022-08-26T06:50:16.356Z,21.10
2022-08-26T06:52:43.595Z,20.30
2022-08-26T06:55:10.237Z,20.70
2022-08-26T06:57:39.761Z,22.20
2022-08-26T07:02:37.439Z,21.00
2022-08-26T07:05:04.911Z,22.10
2022-08-26T07:07:31.635Z,21.10
2022-08-26T07:09:58.337Z,21.40
2022-08-26T07:12:26.053Z,21.10
2022-08-26T07:14:53.050Z,22.30
2022-08-26T07:17:20.581Z,22.00
2022-08-26T07:19:48.588Z,23.80
2022-08-26T07:22:16.424Z,22.40
2022-08-26T07:24:43.896Z,22.30
2022-08-26T07:27:12.452Z,22.30
2022-08-26T07:29:39.588Z,23.70
2022-08-26T07:32:07.672Z,22.70
2022-08-26T07:34:34.556Z,22.80
2022-08-26T07:37:01.279Z,23.30
2022-08-26T07:39:31.682Z,23.40
2022-08-26T07:42:07.449Z,24.50
2022-08-26T07:44:35.754Z,23.40
2022-08-26T07:47:02.511Z,23.50
2022-08-26T07:49:29.684Z,23.90
2022-08-26T07:51:56.747Z,24.10
2022-08-26T07:56:51.350Z,24.50
2022-08-26T08:01:46.236Z,25.00
2022-08-26T08:06:41.388Z,25.30
2022-08-26T08:09:11.490Z,25.20
2022-08-26T08:11:38.175Z,26.30
2022-08-26T08:14:04.891Z,26.50
2022-08-26T08:19:04.927Z,25.70
2022-08-26T08:21:31.822Z,26.90
2022-08-26T08:23:58.555Z,25.80
2022-08-26T08:34:05.698Z,25.20
2022-08-26T08:36:36.249Z,27.20
2022-08-26T08:39:03.739Z,26.60
2022-08-26T08:44:00.158Z,26.50
2022-08-26T08:46:27.562Z,26.60
2022-08-26T08:48:59.837Z,27.00
2022-08-26T08:51:36.225Z,26.80
2022-08-26T08:54:03.047Z,26.80
2022-08-26T08:56:32.283Z,26.60
2022-08-26T08:59:17.972Z,27.80
2022-08-26T09:02:09.190Z,26.40
2022-08-26T09:07:06.670Z,27.60
2022-08-26T09:29:18.235Z,28.10
2022-08-26T09:31:45.400Z,28.30
2022-08-26T09:34:19.998Z,28.40
2022-08-26T09:36:46.689Z,28.70
2022-08-26T09:39:33.196Z,28.60
2022-08-26T09:42:12.781Z,28.60
2022-08-26T09:45:00.239Z,28.40
2022-08-26T09:47:35.911Z,28.50
2022-08-26T09:50:09.417Z,28.60
2022-08-26T09:57:51.643Z,29.50
2022-08-26T10:00:26.593Z,29.90
2022-08-26T10:02:56.061Z,29.60
2022-08-26T10:05:33.829Z,29.90
2022-08-26T10:08:07.814Z,29.40
2022-08-26T10:10:38.701Z,29.50
2022-08-26T10:13:09.928Z,29.70
2022-08-26T10:18:07.295Z,29.20
2022-08-26T10:20:41.708Z,29.50
2022-08-26T10:25:47.291Z,30.50
2022-08-26T10:31:16.776Z,31.20
2022-08-26T10:33:46.974Z,31.30
2022-08-26T10:36:52.307Z,31.50
2022-08-26T10:39:34.296Z,32.00
2022-08-26T10:42:16.135Z,33.20
2022-08-26T10:49:41.973Z,32.90
2022-08-26T10:54:43.808Z,32.90
2022-08-26T10:57:27.877Z,32.30
2022-08-26T10:59:55.705Z,32.60
2022-08-26T11:02:36.139Z,33.30
2022-08-26T11:05:04.690Z,32.50
2022-08-26T11:07:32.833Z,32.20
2022-08-26T11:10:10.214Z,33.60
2022-08-26T11:12:37.459Z,31.80
2022-08-26T11:15:08.311Z,32.50
2022-08-26T11:17:44.771Z,32.20
2022-08-26T11:20:34.982Z,32.20
2022-08-26T11:23:36.236Z,32.30
2022-08-26T11:26:06.416Z,33.30
2022-08-26T11:33:59.824Z,34.60
2022-08-26T11:37:00.570Z,35.00
2022-08-26T11:39:36.584Z,35.20
2022-08-26T11:42:24.019Z,35.50
2022-08-26T11:45:05.538Z,34.70
2022-08-26T11:51:15.854Z,36.00
2022-08-26T11:53:50.224Z,36.00
2022-08-26T11:59:30.253Z,35.90
2022-08-26T12:02:43.113Z,36.30
2022-08-26T12:08:41.726Z,36.70
2022-08-26T12:11:23.322Z,36.90
2022-08-26T12:19:41.410Z,35.90
2022-08-26T12:22:30.997Z,35.70
2022-08-26T12:25:18.487Z,34.20
2022-08-26T12:28:11.961Z,34.20
2022-08-26T12:33:23.101Z,33.80
2022-08-26T12:35:56.498Z,32.70
2022-08-26T12:38:24.387Z,33.10
2022-08-26T12:40:51.129Z,34.50
2022-08-26T12:43:56.729Z,34.70
2022-08-26T12:46:25.588Z,33.80
2022-08-26T12:58:45.934Z,31.90
2022-08-26T13:01:12.587Z,32.30
2022-08-26T13:03:45.471Z,32.60
2022-08-26T13:08:43.778Z,33.80
2022-08-26T13:11:18.949Z,34.90
2022-08-26T13:13:45.991Z,35.00
2022-08-26T13:18:41.236Z,35.10
2022-08-26T13:21:09.093Z,36.10
2022-08-26T13:23:39.458Z,35.80
2022-08-26T13:26:08.652Z,35.70
2022-08-26T13:31:03.098Z,29.90
2022-08-26T13:38:33.189Z,30.10
2022-08-26T13:45:56.825Z,29.00
2022-08-26T13:48:23.708Z,27.90
2022-08-26T13:50:50.670Z,27.10
2022-08-26T13:53:17.624Z,26.50
2022-08-26T13:55:44.329Z,26.70
2022-08-26T13:58:11.807Z,25.00
2022-08-26T14:00:39.596Z,25.60
2022-08-26T14:03:13.206Z,26.10
2022-08-26T14:05:40.586Z,26.00
2022-08-26T14:08:07.744Z,25.50
2022-08-26T14:10:34.618Z,25.00
2022-08-26T14:13:01.431Z,25.40
2022-08-26T14:15:28.560Z,27.20
2022-08-26T14:17:55.878Z,27.10
2022-08-26T14:20:25.121Z,24.60
2022-08-26T14:23:20.420Z,24.60
2022-08-26T14:25:39.199Z,24.40
2022-08-26T14:28:05.831Z,23.70
2022-08-26T14:30:32.480Z,23.60
2022-08-26T14:33:02.269Z,23.60
2022-08-26T14:35:30.252Z,23.40
2022-08-26T14:37:57.221Z,23.40
2022-08-26T14:40:26.544Z,23.40
2022-08-26T14:42:54.033Z,24.40
2022-08-26T14:45:22.742Z,22.90
2022-08-26T14:47:50.263Z,23.50
2022-08-26T14:50:19.213Z,23.50
2022-08-26T14:53:06.122Z,22.60
2022-08-26T14:55:36.387Z,22.40
2022-08-26T15:00:30.340Z,21.70
2022-08-26T15:02:58.327Z,21.50
2022-08-26T15:05:25.477Z,21.50
2022-08-26T15:07:52.129Z,21.50
2022-08-26T15:10:18.785Z,21.60
2022-08-26T15:12:45.599Z,22.50
2022-08-26T15:15:13.721Z,22.20
2022-08-26T15:17:40.691Z,21.40
2022-08-26T15:20:10.910Z,21.30
2022-08-26T15:22:38.739Z,21.30
2022-08-26T15:27:32.574Z,20.90
2022-08-26T15:30:01.150Z,19.50
2022-08-26T15:32:27.751Z,20.20
2022-08-26T15:34:54.369Z,18.70
2022-08-26T15:37:21.030Z,19.80
2022-08-26T15:39:47.749Z,19.30
2022-08-26T15:42:14.989Z,20.80
2022-08-26T15:44:45.382Z,19.80
2022-08-26T15:48:00.899Z,20.40
2022-08-26T15:50:57.604Z,20.70
2022-08-26T15:53:26.099Z,20.40
2022-08-26T15:56:01.528Z,20.60
2022-08-26T15:58:52.395Z,20.50
2022-08-26T16:01:28.085Z,21.80
2022-08-26T16:03:55.350Z,20.40
2022-08-26T16:06:23.291Z,20.90
2022-08-26T16:08:51.321Z,20.30
2022-08-26T16:11:21.410Z,20.70
2022-08-26T16:13:48.087Z,20.50
2022-08-26T16:16:15.038Z,20.60
2022-08-26T16:18:42.241Z,20.10
2022-08-26T16:21:13.124Z,20.70
2022-08-26T16:23:45.064Z,20.70
2022-08-26T16:26:13.403Z,20.60
2022-08-26T16:28:40.046Z,20.40
2022-08-26T16:31:07.174Z,19.90
2022-08-26T16:33:33.822Z,20.30
2022-08-26T16:36:00.503Z,20.20
2022-08-26T16:38:28.227Z,20.10
2022-08-26T16:40:54.820Z,19.80
2022-08-26T16:43:21.438Z,20.00
2022-08-26T16:45:48.098Z,18.70
2022-08-26T16:48:14.775Z,20.20
2022-08-26T16:53:15.972Z,19.60
2022-08-26T16:55:46.722Z,18.40
2022-08-26T16:58:13.416Z,19.70
2022-08-26T17:00:40.386Z,20.60
2022-08-26T17:03:07.077Z,20.10
2022-08-26T17:05:33.839Z,20.60
2022-08-26T17:08:00.478Z,19.80
2022-08-26T17:10:28.194Z,20.70
2022-08-26T17:12:55.277Z,20.50
2022-08-26T17:15:25.467Z,19.60
2022-08-26T17:17:53.274Z,20.20
2022-08-26T17:20:20.421Z,21.10
2022-08-26T17:22:48.035Z,19.70
2022-08-26T17:25:16.603Z,20.50
2022-08-26T17:27:43.322Z,21.30
2022-08-26T17:30:10.385Z,21.40
2022-08-26T17:32:37.275Z,20.10
2022-08-26T17:35:04.258Z,21.70
2022-08-26T17:37:31.429Z,20.00
2022-08-26T17:39:58.545Z,18.90
2022-08-26T17:42:31.461Z,18.10
2022-08-26T17:44:58.698Z,19.80
2022-08-26T17:47:25.368Z,19.40
2022-08-26T17:49:52.117Z,19.90
2022-08-26T17:52:18.784Z,19.20
2022-08-26T17:54:45.389Z,21.50
2022-08-26T17:57:12.015Z,18.90
2022-08-26T17:59:39.098Z,19.70
2022-08-26T18:02:07.721Z,19.50
2022-08-26T18:04:34.349Z,19.10
2022-08-26T18:07:01.416Z,19.00
2022-08-26T18:09:31.558Z,19.80
2022-08-26T18:11:58.838Z,20.00
2022-08-26T18:14:25.986Z,19.60
2022-08-26T18:16:52.597Z,20.00
2022-08-26T18:19:19.443Z,19.50
2022-08-26T18:21:46.084Z,19.60
2022-08-26T18:24:14.160Z,19.60
2022-08-26T18:26:47.959Z,19.70
2022-08-26T18:29:15.187Z,19.90
2022-08-26T18:31:42.473Z,18.60
2022-08-26T18:34:12.792Z,21.00
2022-08-26T18:36:42.325Z,18.60
2022-08-26T18:39:08.984Z,18.70
2022-08-26T18:41:40.446Z,18.40
2022-08-26T18:44:13.312Z,19.70
2022-08-26T18:46:40.459Z,19.30
2022-08-26T18:49:08.034Z,19.30
2022-08-26T18:51:35.216Z,20.10
2022-08-26T18:54:03.023Z,18.40
2022-08-26T18:56:29.762Z,18.50
2022-08-26T18:58:56.403Z,18.70
2022-08-26T19:01:27.162Z,19.40
2022-08-26T19:03:54.675Z,18.30
2022-08-26T19:06:24.866Z,19.10
2022-08-26T19:08:51.554Z,19.30
2022-08-26T19:11:18.820Z,18.40
2022-08-26T19:13:59.922Z,18.20
2022-08-26T19:16:27.324Z,18.90
2022-08-26T19:18:54.458Z,20.30
2022-08-26T19:21:22.037Z,20.20
2022-08-26T19:23:48.968Z,20.10
2022-08-26T19:26:15.634Z,20.40
2022-08-26T19:28:42.382Z,21.30
2022-08-26T19:31:10.562Z,18.40
2022-08-26T19:33:39.343Z,20.50
2022-08-26T19:36:06.661Z,21.30
2022-08-26T19:38:33.474Z,19.60
2022-08-26T19:41:00.251Z,21.10
2022-08-26T19:43:27.088Z,19.70
2022-08-26T19:45:53.930Z,17.70
2022-08-26T19:48:20.721Z,19.20
2022-08-26T19:50:47.478Z,20.10
2022-08-26T19:53:15.378Z,19.60
2022-08-26T19:55:46.712Z,19.30
2022-08-26T19:58:16.618Z,19.00
2022-08-26T20:00:43.250Z,19.10
2022-08-26T20:03:11.764Z,18.80
2022-08-26T20:05:42.720Z,18.90
2022-08-26T20:08:09.527Z,19.80
2022-08-26T20:10:50.012Z,19.10
2022-08-26T20:13:17.234Z,19.70
2022-08-26T20:15:44.509Z,18.70
2022-08-26T20:18:29.929Z,19.70
2022-08-26T20:21:26.490Z,20.20
2022-08-26T20:23:54.064Z,19.90
2022-08-26T20:26:24.719Z,19.60
2022-08-26T20:28:51.835Z,19.20
2022-08-26T20:31:19.501Z,20.10
2022-08-26T20:33:48.603Z,19.30
2022-08-26T20:36:15.413Z,19.40
2022-08-26T20:38:42.714Z,19.10
2022-08-26T20:41:09.563Z,19.30
2022-08-26T20:43:36.575Z,20.20
2022-08-26T20:46:09.965Z,19.30
2022-08-26T20:48:44.631Z,18.90
2022-08-26T20:51:12.422Z,17.80
2022-08-26T20:53:42.788Z,18.90
2022-08-26T20:56:10.781Z,19.70
2022-08-26T20:58:37.932Z,19.40
2022-08-26T21:01:08.025Z,19.30
2022-08-26T21:03:40.620Z,19.40
2022-08-26T21:06:10.483Z,19.40
2022-08-26T21:08:42.099Z,19.50
2022-08-26T21:11:10.223Z,19.70
2022-08-26T21:13:54.478Z,19.80
2022-08-26T21:16:28.639Z,19.60
2022-08-26T21:19:00.344Z,19.90
2022-08-26T21:21:29.962Z,20.20
2022-08-26T21:23:56.826Z,20.20
2022-08-26T21:26:23.849Z,18.90
2022-08-26T21:28:50.900Z,20.30
2022-08-26T21:31:20.100Z,21.00
2022-08-26T21:33:47.211Z,20.40
2022-08-26T21:36:14.847Z,19.70
2022-08-26T21:38:42.137Z,19.80
2022-08-26T21:41:18.798Z,20.70
2022-08-26T21:43:46.568Z,19.20
2022-08-26T21:46:15.320Z,20.80
2022-08-26T21:48:50.321Z,18.70
2022-08-26T21:51:19.183Z,19.20
2022-08-26T21:53:46.353Z,18.90
2022-08-26T21:56:14.744Z,18.00
2022-08-26T21:58:44.185Z,20.20
2022-08-26T22:01:12.435Z,19.10
2022-08-26T22:03:46.623Z,20.50
2022-08-26T22:06:18.397Z,18.70
2022-08-26T22:08:45.418Z,18.90
2022-08-26T22:11:18.127Z,19.40
2022-08-26T22:13:45.606Z,19.10
2022-08-26T22:16:13.375Z,19.90
2022-08-26T22:18:43.519Z,20.50
2022-08-26T22:21:12.239Z,19.60
2022-08-26T22:23:39.149Z,20.70
2022-08-26T22:26:06.811Z,19.80
2022-08-26T22:28:38.906Z,18.10
2022-08-26T22:31:14.084Z,20.50
2022-08-26T22:33:42.137Z,18.40
2022-08-26T22:36:15.269Z,20.00
2022-08-26T22:38:41.902Z,18.90
2022-08-26T22:41:09.841Z,20.30
2022-08-26T22:43:38.377Z,19.80
2022-08-26T22:46:05.713Z,18.90
2022-08-26T22:48:32.806Z,19.50
2022-08-26T22:51:01.974Z,18.10
2022-08-26T22:53:28.877Z,18.10
2022-08-26T22:55:59.509Z,19.00
2022-08-26T22:58:30.849Z,20.80
2022-08-26T23:01:00.847Z,21.20
2022-08-26T23:03:27.782Z,19.30
2022-08-26T23:05:55.611Z,19.80
2022-08-26T23:08:22.933Z,19.60
2022-08-26T23:10:49.675Z,20.00
2022-08-26T23:13:16.506Z,20.70
2022-08-26T23:15:43.890Z,19.40
2022-08-26T23:18:11.469Z,18.70
2022-08-26T23:20:39.084Z,19.40
2022-08-26T23:23:05.998Z,20.00
2022-08-26T23:25:33.417Z,18.40
2022-08-26T23:28:00.608Z,19.80
2022-08-26T23:30:28.318Z,17.40
2022-08-26T23:32:55.021Z,17.90
2022-08-26T23:35:22.107Z,20.30
2022-08-26T23:37:51.222Z,18.60
2022-08-26T23:40:20.193Z,19.40
2022-08-26T23:42:47.482Z,18.20
2022-08-26T23:45:18.283Z,18.10
2022-08-26T23:47:45.541Z,19.80
2022-08-26T23:50:12.368Z,19.90
2022-08-26T23:52:57.802Z,18.80
2022-08-26T23:55:24.452Z,18.50
2022-08-26T23:57:51.103Z,18.60
